Time;durP1;ratioP1;P1;durP2;ratioP2;P2;SDS_P1;SDS_P2;PMS_P1;PMS_P2;Temp;Humidity;BMP_temperature;BMP_pressure;BME280_temperature;BME280_humidity;BME280_pressure;Samples;Min_cycle;Max_cycle;Signal;HPM_P1;HPM_P2
2022/11/23 00:01:20;;;;;;;7.73;0.70;;;;;;;11.61;100.00;94201.88;5111861;28;20435;-52
2022/11/23 00:03:50;;;;;;;0.40;0.30;;;;;;;11.30;100.00;94185.91;5112433;28;20434;-52
2022/11/23 00:06:20;;;;;;;0.53;0.53;;;;;;;11.72;100.00;94186.50;5112615;28;20437;-52
2022/11/23 00:08:50;;;;;;;0.37;0.27;;;;;;;12.02;100.00;94173.25;5112369;28;20436;-52
2022/11/23 00:11:19;;;;;;;0.93;0.93;;;;;;;12.11;100.00;94170.66;5112306;28;20438;-52
2022/11/23 00:13:49;;;;;;;0.40;0.30;;;;;;;11.76;100.00;94174.22;5111711;28;20461;-52
2022/11/23 00:16:19;;;;;;;0.60;0.60;;;;;;;11.54;100.00;94134.38;5111899;28;20525;-52
2022/11/23 00:18:50;;;;;;;0.90;0.60;;;;;;;11.80;100.00;94180.47;5112182;28;20429;-52
2022/11/23 00:21:19;;;;;;;0.50;0.40;;;;;;;11.69;100.00;94190.56;5112082;28;20470;-52
2022/11/23 00:23:47;;;;;;;0.40;0.30;;;;;;;11.63;100.00;94156.47;5111829;28;20437;-52
2022/11/23 00:26:16;;;;;;;0.80;0.80;;;;;;;11.49;100.00;94157.31;5111924;28;20808;-52
2022/11/23 00:28:45;;;;;;;0.83;0.50;;;;;;;11.79;100.00;94161.09;5111984;28;21014;-53
2022/11/23 00:31:17;;;;;;;0.40;0.20;;;;;;;11.99;100.00;94159.81;5112101;28;20925;-52
2022/11/23 00:33:49;;;;;;;0.30;0.20;;;;;;;12.04;100.00;94157.78;5112038;28;20429;-53
2022/11/23 00:36:17;;;;;;;0.30;0.20;;;;;;;12.11;100.00;94160.03;5111996;28;20465;-53
2022/11/23 00:38:46;;;;;;;0.40;0.30;;;;;;;12.09;100.00;94160.31;5111597;28;20432;-52
2022/11/23 00:41:16;;;;;;;0.40;0.30;;;;;;;11.63;100.00;94172.38;5111837;28;20433;-52
2022/11/23 00:43:45;;;;;;;0.47;0.47;;;;;;;11.58;100.00;94148.63;5111739;28;20468;-52
2022/11/23 00:46:16;;;;;;;0.40;0.40;;;;;;;11.80;100.00;94138.78;5111445;28;20917;-52
2022/11/23 00:48:45;;;;;;;0.40;0.40;;;;;;;11.87;100.00;94162.22;5112464;28;20441;-52
2022/11/23 00:51:16;;;;;;;0.40;0.40;;;;;;;11.92;100.00;94167.41;5116524;28;20427;-52
2022/11/23 00:53:44;;;;;;;0.57;0.40;;;;;;;12.03;100.00;94150.13;5115723;28;20429;-52
2022/11/23 00:56:13;;;;;;;0.40;0.30;;;;;;;12.03;100.00;94144.81;5115650;28;20941;-52
2022/11/23 00:58:41;;;;;;;0.40;0.30;;;;;;;12.06;100.00;94163.59;5114866;28;20437;-52
2022/11/23 01:01:11;;;;;;;0.30;0.20;;;;;;;11.87;100.00;94152.41;5115984;28;20434;-53
2022/11/23 01:03:43;;;;;;;0.50;0.47;;;;;;;11.39;100.00;94146.94;5115782;28;20469;-52
2022/11/23 01:06:13;;;;;;;0.40;0.30;;;;;;;11.56;100.00;94164.84;5115855;28;20435;-52
2022/11/23 01:08:42;;;;;;;0.37;0.30;;;;;;;10.60;100.00;94147.72;5115218;28;20429;-52
2022/11/23 01:11:12;;;;;;;0.40;0.30;;;;;;;10.36;100.00;94149.78;5115475;28;21109;-52
2022/11/23 01:13:43;;;;;;;0.60;0.60;;;;;;;10.11;100.00;94153.69;5115163;28;20426;-52
2022/11/23 01:16:14;;;;;;;0.43;0.43;;;;;;;10.15;100.00;94149.38;5114792;28;20434;-52
2022/11/23 01:18:54;;;;;;;0.40;0.30;;;;;;;10.51;100.00;94126.41;5113995;28;21209;-52
2022/11/23 01:21:22;;;;;;;0.47;0.47;;;;;;;10.43;100.00;94118.38;5115271;28;20457;-52
2022/11/23 01:23:50;;;;;;;0.87;0.87;;;;;;;10.76;100.00;94130.38;5115590;28;20433;-52
2022/11/23 01:26:19;;;;;;;0.30;0.20;;;;;;;11.18;100.00;94129.94;5115256;28;20757;-52
2022/11/23 01:28:47;;;;;;;1.60;0.30;;;;;;;11.32;100.00;94104.16;5114634;28;21012;-52
2022/11/23 01:31:17;;;;;;;0.30;0.20;;;;;;;11.68;100.00;94106.72;5114842;28;20915;-52
2022/11/23 01:33:47;;;;;;;0.30;0.20;;;;;;;11.18;100.00;94102.66;5115186;28;20435;-52
2022/11/23 01:36:19;;;;;;;0.50;0.30;;;;;;;11.33;100.00;94108.34;5114430;28;20792;-53
2022/11/23 01:38:48;;;;;;;0.50;0.50;;;;;;;11.57;100.00;94101.94;5115016;28;20467;-53
2022/11/23 01:41:18;;;;;;;0.50;0.50;;;;;;;11.21;100.00;94102.81;5114885;28;20429;-53
2022/11/23 01:43:47;;;;;;;0.40;0.40;;;;;;;10.84;100.00;94103.16;5114555;28;20435;-50
2022/11/23 01:46:16;;;;;;;1.90;0.30;;;;;;;10.55;100.00;94100.88;5113875;28;20785;-50
2022/11/23 01:48:47;;;;;;;0.40;0.30;;;;;;;10.64;100.00;94103.63;5115056;28;20867;-53
2022/11/23 01:51:20;;;;;;;0.40;0.40;;;;;;;10.94;100.00;94086.25;5114959;28;20424;-53
2022/11/23 01:53:51;;;;;;;0.30;0.20;;;;;;;11.14;100.00;94077.81;5114225;28;20430;-51
2022/11/23 01:56:26;;;;;;;0.33;0.23;;;;;;;11.33;100.00;94079.19;5114137;27;20948;-51
2022/11/23 01:58:58;;;;;;;0.30;0.27;;;;;;;11.41;100.00;94081.09;5113880;28;20462;-51
2022/11/23 02:01:27;;;;;;;0.30;0.20;;;;;;;11.24;100.00;94086.31;5113571;28;20460;-52
2022/11/23 02:03:58;;;;;;;0.40;0.40;;;;;;;10.77;100.00;94033.91;5114675;28;20430;-52
2022/11/23 02:06:30;;;;;;;0.40;0.40;;;;;;;11.18;100.00;94092.06;5114609;28;20448;-52
2022/11/23 02:08:58;;;;;;;0.40;0.30;;;;;;;11.33;100.00;94081.06;5113756;28;20430;-52
2022/11/23 02:11:26;;;;;;;0.40;0.30;;;;;;;10.97;100.00;94093.59;5114013;27;20437;-52
2022/11/23 02:13:56;;;;;;;0.97;0.50;;;;;;;10.69;100.00;94098.22;5113769;28;20783;-52
2022/11/23 02:16:24;;;;;;;0.40;0.30;;;;;;;10.65;100.00;94100.66;5114338;28;20432;-52
2022/11/23 02:18:53;;;;;;;0.50;0.40;;;;;;;10.82;100.00;94110.66;5114278;27;20960;-52
2022/11/23 02:21:23;;;;;;;0.43;0.40;;;;;;;10.71;100.00;94090.75;5113616;28;20436;-52
2022/11/23 02:23:59;;;;;;;0.47;0.40;;;;;;;10.63;100.00;94089.59;5114172;28;20427;-52
2022/11/23 02:26:31;;;;;;;0.90;0.73;;;;;;;11.17;100.00;94091.25;5114297;27;20871;-52
2022/11/23 02:29:03;;;;;;;0.30;0.20;;;;;;;11.20;100.00;94095.19;5114037;28;20471;-52
2022/11/23 02:31:32;;;;;;;0.30;0.20;;;;;;;10.82;100.00;94114.09;5113642;27;20440;-52
2022/11/23 02:34:00;;;;;;;0.40;0.30;;;;;;;10.13;100.00;94091.44;5113904;28;20422;-52
2022/11/23 02:36:40;;;;;;;0.40;0.30;;;;;;;10.07;100.00;94076.72;5113357;28;20969;-52
2022/11/23 02:39:14;;;;;;;0.50;0.37;;;;;;;10.66;100.00;94109.41;5112560;28;20863;-52
2022/11/23 02:41:45;;;;;;;0.40;0.30;;;;;;;10.92;100.00;94097.16;5111851;28;20427;-52
2022/11/23 02:44:35;;;;;;;0.30;0.20;;;;;;;11.18;100.00;94044.31;5113376;28;20431;-52
2022/11/23 02:47:05;;;;;;;0.40;0.30;;;;;;;11.63;100.00;94063.59;5113441;28;20427;-52
2022/11/23 02:49:33;;;;;;;0.40;0.40;;;;;;;11.06;100.00;94052.81;5113126;28;20939;-52
2022/11/23 02:52:02;;;;;;;0.57;0.57;;;;;;;10.76;100.00;94034.97;5113767;28;20432;-52
2022/11/23 02:54:31;;;;;;;0.40;0.30;;;;;;;10.32;100.00;94003.97;5113767;28;20444;-52
2022/11/23 02:57:00;;;;;;;0.40;0.30;;;;;;;10.54;100.00;94050.88;5113655;28;20766;-52
2022/11/23 02:59:31;;;;;;;0.50;0.50;;;;;;;10.76;100.00;94059.63;5113502;28;20480;-52
2022/11/23 03:02:00;;;;;;;0.37;0.30;;;;;;;11.02;100.00;94045.75;5113304;28;20435;-52
2022/11/23 03:04:28;;;;;;;0.30;0.20;;;;;;;11.35;100.00;94047.06;5112595;27;20434;-52
2022/11/23 03:06:57;;;;;;;0.70;0.67;;;;;;;10.91;100.00;94039.13;5113213;28;20431;-52
2022/11/23 03:09:25;;;;;;;0.30;0.30;;;;;;;10.48;100.00;94044.88;5113521;28;20423;-52
2022/11/23 03:11:54;;;;;;;0.40;0.40;;;;;;;10.47;100.00;94039.91;5112723;28;20949;-51
2022/11/23 03:14:24;;;;;;;0.40;0.30;;;;;;;10.75;100.00;94036.09;5113597;28;20452;-51
2022/11/23 03:16:52;;;;;;;0.40;0.30;;;;;;;11.08;100.00;94055.19;5112921;27;20432;-52
2022/11/23 03:19:21;;;;;;;0.30;0.20;;;;;;;11.15;100.00;94050.22;5112498;28;20480;-51
2022/11/23 03:21:49;;;;;;;0.40;0.30;;;;;;;10.98;100.00;94050.88;5112381;28;20422;-52
2022/11/23 03:24:18;;;;;;;0.30;0.20;;;;;;;10.84;100.00;94063.41;5112788;28;20820;-51
2022/11/23 03:26:46;;;;;;;0.40;0.40;;;;;;;11.15;100.00;94074.88;5112535;28;20423;-52
2022/11/23 03:29:14;;;;;;;0.40;0.30;;;;;;;11.05;100.00;94072.47;5113153;28;20439;-52
2022/11/23 03:31:44;;;;;;;0.40;0.40;;;;;;;11.21;100.00;94075.50;5112265;28;20422;-52
2022/11/23 03:34:12;;;;;;;0.30;0.20;;;;;;;11.56;100.00;94073.84;5112389;28;20428;-53
2022/11/23 03:36:40;;;;;;;0.30;0.30;;;;;;;11.46;100.00;94075.66;5112501;28;20425;-52
2022/11/23 03:39:09;;;;;;;0.40;0.30;;;;;;;10.81;100.00;94064.00;5112466;28;20484;-52
2022/11/23 03:41:37;;;;;;;2.00;2.00;;;;;;;10.97;100.00;94065.22;5112208;28;20425;-52
2022/11/23 03:44:05;;;;;;;0.30;0.20;;;;;;;11.05;100.00;94056.56;5112663;28;20926;-55
2022/11/23 03:46:33;;;;;;;0.30;0.30;;;;;;;11.27;100.00;94053.88;5111694;28;20442;-52
2022/11/23 03:49:03;;;;;;;0.30;0.20;;;;;;;11.42;100.00;94053.50;5112013;28;20420;-52
2022/11/23 03:51:31;;;;;;;0.30;0.30;;;;;;;11.78;100.00;94066.66;5112255;28;20972;-52
2022/11/23 03:54:00;;;;;;;0.40;0.30;;;;;;;11.76;100.00;94054.78;5112219;28;20432;-52
2022/11/23 03:56:28;;;;;;;0.30;0.20;;;;;;;11.90;100.00;94045.59;5112444;28;20432;-52
2022/11/23 03:58:56;;;;;;;0.30;0.20;;;;;;;11.78;100.00;94026.03;5112455;28;21143;-52
2022/11/23 04:01:25;;;;;;;0.40;0.30;;;;;;;11.62;100.00;94048.72;5112568;28;20431;-52
2022/11/23 04:03:53;;;;;;;0.30;0.20;;;;;;;11.66;100.00;94052.38;5112540;28;20429;-54
2022/11/23 04:06:22;;;;;;;0.40;0.30;;;;;;;11.46;100.00;94057.09;5112148;28;20934;-53
2022/11/23 04:08:51;;;;;;;0.43;0.43;;;;;;;11.52;100.00;94067.56;5112314;28;20806;-53
2022/11/23 04:11:22;;;;;;;0.70;0.63;;;;;;;11.52;100.00;94072.88;5112255;28;20520;-53
2022/11/23 04:13:50;;;;;;;0.97;0.97;;;;;;;11.23;100.00;94086.63;5112180;28;20914;-52
2022/11/23 04:16:18;;;;;;;0.40;0.30;;;;;;;11.54;100.00;94084.75;5112606;28;21055;-52
2022/11/23 04:18:46;;;;;;;0.47;0.40;;;;;;;11.44;100.00;94085.81;5112352;28;20463;-52
2022/11/23 04:21:15;;;;;;;0.30;0.20;;;;;;;11.64;100.00;94092.44;5112345;28;20512;-52
2022/11/23 04:23:44;;;;;;;0.40;0.30;;;;;;;11.79;100.00;94088.66;5113256;28;20422;-52
2022/11/23 04:26:12;;;;;;;0.30;0.20;;;;;;;11.81;100.00;94094.44;5116332;28;20876;-52
2022/11/23 04:28:41;;;;;;;0.40;0.30;;;;;;;11.97;100.00;94083.09;5116120;28;20994;-52
2022/11/23 04:31:09;;;;;;;0.40;0.30;;;;;;;11.59;100.00;94086.50;5116656;28;20755;-52
2022/11/23 04:33:37;;;;;;;0.80;0.60;;;;;;;11.48;100.00;94102.66;5116484;28;20432;-52
2022/11/23 04:36:06;;;;;;;0.30;0.20;;;;;;;11.48;100.00;94102.66;5116387;27;20426;-52
2022/11/23 04:38:34;;;;;;;0.30;0.20;;;;;;;11.62;100.00;94102.59;5115949;28;20475;-52
2022/11/23 04:41:04;;;;;;;0.40;0.30;;;;;;;11.79;100.00;94101.94;5116083;28;20442;-52
2022/11/23 04:43:32;;;;;;;0.30;0.20;;;;;;;11.79;100.00;94075.41;5116395;28;20429;-52
2022/11/23 04:46:00;;;;;;;0.30;0.20;;;;;;;11.80;100.00;94084.91;5116578;28;20441;-52
2022/11/23 04:48:29;;;;;;;1.40;1.30;;;;;;;11.86;100.00;94091.66;5115915;28;20437;-52
2022/11/23 04:50:57;;;;;;;0.40;0.30;;;;;;;11.77;100.00;94082.88;5116193;28;20453;-52
2022/11/23 04:53:25;;;;;;;0.40;0.30;;;;;;;11.55;100.00;94085.53;5115909;27;20431;-52
2022/11/23 04:55:54;;;;;;;0.40;0.30;;;;;;;11.67;100.00;94088.41;5115520;28;20445;-52
2022/11/23 04:58:23;;;;;;;0.40;0.30;;;;;;;11.73;100.00;94092.53;5115580;27;20437;-52
2022/11/23 05:00:54;;;;;;;0.40;0.40;;;;;;;11.79;100.00;94094.75;5115558;28;20524;-52
2022/11/23 05:03:23;;;;;;;1.07;1.07;;;;;;;11.47;100.00;94084.41;5115205;28;20441;-52
2022/11/23 05:05:51;;;;;;;0.97;0.40;;;;;;;11.66;100.00;94086.84;5115933;28;20430;-52
2022/11/23 05:08:19;;;;;;;19.57;1.13;;;;;;;11.82;100.00;94086.16;5115873;28;20444;-52
2022/11/23 05:10:47;;;;;;;0.40;0.40;;;;;;;11.82;100.00;94077.41;5115464;28;20918;-52
2022/11/23 05:13:16;;;;;;;1.20;1.17;;;;;;;11.87;100.00;94074.63;5115480;28;20434;-52
2022/11/23 05:15:45;;;;;;;1.10;0.80;;;;;;;11.43;100.00;94078.91;5115528;28;20427;-52
2022/11/23 05:18:32;;;;;;;0.77;0.77;;;;;;;11.76;100.00;94106.00;5115466;28;20833;-52
2022/11/23 05:21:00;;;;;;;0.40;0.30;;;;;;;11.96;100.00;94105.44;5115102;27;20441;-52
2022/11/23 05:23:29;;;;;;;0.60;0.60;;;;;;;12.08;100.00;94094.22;5115293;28;20986;-52
2022/11/23 05:25:57;;;;;;;0.80;0.80;;;;;;;11.37;100.00;94095.28;5114643;27;20502;-52
2022/11/23 05:31:12;;;;;;;0.40;0.40;;;;;;;11.82;100.00;94064.16;5115094;28;20426;-53
2022/11/23 05:33:41;;;;;;;1.07;1.07;;;;;;;11.31;100.00;94068.09;5115134;28;20540;-52
2022/11/23 05:36:12;;;;;;;1.27;1.17;;;;;;;11.43;100.00;94060.34;5114788;28;20431;-52
2022/11/23 05:38:41;;;;;;;0.70;0.47;;;;;;;11.78;100.00;94071.16;5114634;28;20433;-51
2022/11/23 05:41:10;;;;;;;0.40;0.30;;;;;;;11.78;100.00;94055.25;5114800;27;20427;-51
2022/11/23 05:43:38;;;;;;;1.27;1.23;;;;;;;11.54;100.00;94057.44;5114138;28;20430;-52
2022/11/23 05:46:06;;;;;;;2.00;1.27;;;;;;;11.83;100.00;94063.84;5114667;27;20421;-52
2022/11/23 05:48:36;;;;;;;0.50;0.40;;;;;;;11.96;100.00;94049.69;5114724;28;20801;-51
2022/11/23 05:51:04;;;;;;;1.17;1.17;;;;;;;11.54;100.00;94073.34;5114658;28;20439;-52
2022/11/23 05:53:33;;;;;;;0.40;0.37;;;;;;;11.74;100.00;94070.22;5114110;28;20437;-53
2022/11/23 05:56:01;;;;;;;1.67;1.67;;;;;;;11.86;100.00;94078.38;5114952;28;20797;-52
2022/11/23 05:58:32;;;;;;;0.97;0.97;;;;;;;11.65;100.00;94078.09;5114504;28;20436;-52
2022/11/23 06:01:01;;;;;;;0.70;0.70;;;;;;;11.55;100.00;94085.53;5114510;28;20988;-55
2022/11/23 06:03:30;;;;;;;1.30;1.23;;;;;;;11.46;100.00;94067.72;5114423;28;20491;-54
2022/11/23 06:06:00;;;;;;;0.80;0.80;;;;;;;11.79;100.00;94086.03;5114595;28;20431;-53
2022/11/23 06:08:28;;;;;;;0.60;0.60;;;;;;;11.93;100.00;94081.38;5114488;27;20430;-52
2022/11/23 06:10:57;;;;;;;0.40;0.30;;;;;;;12.02;100.00;94069.69;5114852;28;20440;-51
2022/11/23 06:13:25;;;;;;;0.50;0.50;;;;;;;11.46;100.00;94033.22;5113523;28;20872;-52
2022/11/23 06:15:53;;;;;;;2.70;0.80;;;;;;;11.47;100.00;94073.81;5114038;28;20526;-52
2022/11/23 06:18:22;;;;;;;1.33;1.33;;;;;;;11.35;100.00;94065.63;5114076;28;20514;-52
2022/11/23 06:20:59;;;;;;;0.70;0.70;;;;;;;11.69;100.00;94080.97;5114260;27;20477;-52
2022/11/23 06:23:28;;;;;;;0.60;0.50;;;;;;;11.88;100.00;94084.16;5114104;28;20422;-51
2022/11/23 06:26:02;;;;;;;2.10;1.90;;;;;;;11.98;100.00;94091.84;5113579;28;20529;-53
2022/11/23 06:28:30;;;;;;;1.83;1.10;;;;;;;12.15;100.00;94073.31;5113937;28;21075;-51
2022/11/23 06:31:02;;;;;;;0.70;0.70;;;;;;;11.79;100.00;94093.97;5113668;28;20964;-52
2022/11/23 06:33:30;;;;;;;1.03;0.87;;;;;;;12.05;100.00;94092.19;5113680;27;20426;-52
2022/11/23 06:36:01;;;;;;;5.70;2.30;;;;;;;12.00;100.00;94077.19;5113704;28;20420;-52
2022/11/23 06:38:31;;;;;;;2.23;2.13;;;;;;;12.06;100.00;94091.91;5113788;28;20434;-52
2022/11/23 06:41:00;;;;;;;0.73;0.73;;;;;;;11.85;100.00;94090.88;5113931;28;20467;-52
2022/11/23 06:43:29;;;;;;;2.23;2.13;;;;;;;11.64;100.00;94104.97;5113611;28;20852;-51
2022/11/23 06:45:57;;;;;;;2.27;2.17;;;;;;;11.59;100.00;94111.16;5113078;28;20950;-52
2022/11/23 06:48:26;;;;;;;2.00;1.80;;;;;;;11.49;100.00;94106.09;5113065;28;20482;-51
2022/11/23 06:50:54;;;;;;;1.13;1.03;;;;;;;11.37;100.00;94096.06;5113616;28;20476;-51
2022/11/23 06:53:22;;;;;;;2.27;0.73;;;;;;;11.76;100.00;94113.16;5113320;28;20439;-51
2022/11/23 06:55:52;;;;;;;0.40;0.30;;;;;;;11.63;100.00;94121.97;5113273;28;20426;-51
2022/11/23 06:58:20;;;;;;;0.50;0.50;;;;;;;12.21;100.00;94111.16;5113335;28;21047;-51
2022/11/23 07:00:48;;;;;;;0.50;0.40;;;;;;;12.60;100.00;94111.84;5113517;28;20469;-51
2022/11/23 07:03:20;;;;;;;0.60;0.60;;;;;;;12.53;100.00;94063.69;5113245;28;20431;-51
2022/11/23 07:05:50;;;;;;;0.53;0.53;;;;;;;13.02;100.00;94117.53;5113004;28;20517;-51
2022/11/23 07:08:18;;;;;;;0.50;0.50;;;;;;;12.96;100.00;94118.78;5113595;28;20425;-52
2022/11/23 07:10:46;;;;;;;1.33;1.00;;;;;;;12.79;100.00;94113.44;5113190;28;20434;-52
2022/11/23 07:13:16;;;;;;;4.60;4.30;;;;;;;12.82;100.00;94113.63;5112662;28;20423;-52
2022/11/23 07:15:44;;;;;;;2.60;2.20;;;;;;;12.91;100.00;94103.75;5112477;28;20430;-53
2022/11/23 07:18:14;;;;;;;1.97;1.87;;;;;;;13.24;100.00;94104.09;5112567;28;20922;-52
2022/11/23 07:23:28;;;;;;;6.43;2.27;;;;;;;13.66;100.00;94105.88;5113003;28;20449;-52
2022/11/23 07:25:56;;;;;;;1.53;1.50;;;;;;;13.88;100.00;94097.69;5112943;28;20787;-52
2022/11/23 07:28:26;;;;;;;2.67;2.47;;;;;;;13.93;100.00;94099.41;5112738;28;20471;-52
2022/11/23 07:30:54;;;;;;;0.70;0.70;;;;;;;13.99;100.00;94096.22;5112901;28;20440;-53
2022/11/23 07:33:22;;;;;;;0.67;0.57;;;;;;;14.33;100.00;94097.22;5113267;28;20441;-53
2022/11/23 07:35:50;;;;;;;0.70;0.70;;;;;;;14.77;100.00;94098.53;5112516;28;20435;-54
2022/11/23 07:38:19;;;;;;;5.27;2.00;;;;;;;14.65;100.00;94106.44;5112484;28;20433;-54
2022/11/23 07:40:49;;;;;;;0.57;0.57;;;;;;;15.20;100.00;94110.41;5112422;28;20465;-54
2022/11/23 07:43:17;;;;;;;2.10;1.90;;;;;;;14.68;100.00;94095.91;5112288;28;20955;-54
2022/11/23 07:45:47;;;;;;;1.83;1.73;;;;;;;14.94;100.00;94106.41;5112803;27;20790;-54
2022/11/23 07:48:16;;;;;;;1.60;1.50;;;;;;;15.15;100.00;94118.63;5112259;27;20438;-55
2022/11/23 07:50:44;;;;;;;1.63;1.53;;;;;;;15.76;100.00;94113.56;5111988;28;20433;-54
2022/11/23 07:53:12;;;;;;;1.10;1.00;;;;;;;15.67;100.00;94115.53;5112425;28;20425;-54
2022/11/23 07:55:41;;;;;;;0.50;0.50;;;;;;;15.48;100.00;94112.56;5112342;28;20488;-55
2022/11/23 07:58:10;;;;;;;1.63;1.10;;;;;;;15.85;100.00;94108.88;5111537;28;20903;-55
2022/11/23 08:00:39;;;;;;;0.77;0.77;;;;;;;16.01;100.00;94107.16;5112346;28;20477;-55
2022/11/23 08:03:13;;;;;;;0.60;0.60;;;;;;;16.41;100.00;94102.72;5112474;28;20427;-55
2022/11/23 08:05:57;;;;;;;1.27;0.80;;;;;;;16.99;100.00;94098.00;5112352;28;20436;-55
2022/11/23 08:08:26;;;;;;;0.67;0.67;;;;;;;17.15;100.00;94098.84;5112328;28;20455;-55
2022/11/23 08:10:54;;;;;;;0.70;0.70;;;;;;;16.42;100.00;94103.47;5112226;28;20447;-55
2022/11/23 08:13:22;;;;;;;1.63;1.53;;;;;;;16.27;100.00;94112.16;5112034;28;20427;-56
2022/11/23 08:15:51;;;;;;;0.50;0.40;;;;;;;16.36;100.00;94110.19;5112013;28;20911;-55
2022/11/23 08:18:24;;;;;;;0.50;0.40;;;;;;;17.00;99.25;94111.03;5112392;28;20443;-55
2022/11/23 08:20:52;;;;;;;0.60;0.40;;;;;;;16.90;100.00;94111.50;5111970;28;20472;-55
2022/11/23 08:23:21;;;;;;;0.50;0.40;;;;;;;17.45;100.00;94094.72;5112193;28;20816;-55
2022/11/23 08:25:49;;;;;;;0.70;0.63;;;;;;;17.74;98.88;94089.00;5111728;28;20952;-55
2022/11/23 08:28:18;;;;;;;0.77;0.63;;;;;;;17.83;91.83;94098.81;5111965;28;20476;-54
2022/11/23 08:30:46;;;;;;;0.40;0.30;;;;;;;18.13;88.41;94105.31;5112020;28;20527;-55
2022/11/23 08:33:15;;;;;;;0.50;0.30;;;;;;;17.68;92.81;94103.78;5111946;28;20432;-55
2022/11/23 08:35:45;;;;;;;0.83;0.83;;;;;;;17.30;92.61;94098.13;5111848;28;20424;-55
2022/11/23 08:38:13;;;;;;;0.40;0.30;;;;;;;17.47;94.39;94086.34;5111982;28;20508;-55
2022/11/23 08:40:42;;;;;;;1.63;1.30;;;;;;;16.83;96.78;94094.44;5111718;28;20467;-55
2022/11/23 08:43:10;;;;;;;1.60;1.50;;;;;;;17.28;98.53;94089.63;5111847;28;20435;-55
2022/11/23 08:45:38;;;;;;;0.40;0.40;;;;;;;17.26;95.37;94097.22;5112043;28;20428;-55
2022/11/23 08:48:07;;;;;;;3.60;0.63;;;;;;;17.15;94.10;94093.50;5111753;28;20502;-56
2022/11/23 08:50:36;;;;;;;0.40;0.27;;;;;;;17.93;92.48;94092.94;5111499;28;20435;-52
2022/11/23 08:53:05;;;;;;;0.47;0.47;;;;;;;18.04;91.21;94091.28;5111729;28;20515;-52
2022/11/23 08:55:33;;;;;;;2.43;0.90;;;;;;;16.95;88.53;93925.84;5111840;28;20788;-52
2022/11/23 08:58:02;;;;;;;2.30;0.57;;;;;;;17.17;90.02;93925.25;5111496;28;20432;-52
2022/11/23 09:00:33;;;;;;;0.40;0.30;;;;;;;19.31;84.15;94078.09;5111858;28;20431;-52
2022/11/23 09:03:01;;;;;;;0.50;0.40;;;;;;;18.87;78.28;93970.19;5111954;28;20434;-53
2022/11/23 09:05:30;;;;;;;0.53;0.47;;;;;;;19.95;75.93;94077.41;5111654;28;20424;-52
2022/11/23 09:08:00;;;;;;;0.50;0.50;;;;;;;19.96;75.18;94071.66;5111603;28;20428;-50
2022/11/23 09:10:30;;;;;;;0.90;0.70;;;;;;;20.27;75.99;94044.56;5113482;28;20428;-50
2022/11/23 09:12:58;;;;;;;0.70;0.60;;;;;;;21.28;69.84;94061.78;5115420;28;20510;-50
2022/11/23 09:15:27;;;;;;;0.50;0.50;;;;;;;21.21;69.69;94024.75;5115546;27;20904;-50
2022/11/23 09:17:56;;;;;;;4.93;1.03;;;;;;;21.77;67.33;94056.19;5115309;28;20461;-50
2022/11/23 09:20:25;;;;;;;0.50;0.40;;;;;;;22.44;64.96;94054.88;5115219;28;20427;-51
2022/11/23 09:22:54;;;;;;;0.50;0.37;;;;;;;22.37;65.65;93979.25;5115366;28;20494;-50
2022/11/23 09:25:23;;;;;;;0.70;0.60;;;;;;;22.91;62.42;94039.81;5115626;28;20432;-50
2022/11/23 09:27:57;;;;;;;0.50;0.30;;;;;;;23.47;63.09;94037.41;5115068;28;20558;-49
2022/11/23 09:30:25;;;;;;;0.40;0.30;;;;;;;22.59;62.21;94026.84;5115504;28;20816;-49
2022/11/23 09:32:55;;;;;;;0.60;0.60;;;;;;;22.61;63.00;93891.44;5114879;28;20420;-49
2022/11/23 09:35:24;;;;;;;0.87;0.70;;;;;;;23.72;56.82;94011.19;5115040;28;20434;-49
2022/11/23 09:37:56;;;;;;;0.60;0.40;;;;;;;24.23;56.66;93978.41;5114751;28;20463;-49
2022/11/23 09:40:28;;;;;;;0.60;0.40;;;;;;;24.54;53.50;94014.75;5114880;28;20503;-49
2022/11/23 09:43:29;;;;;;;3.90;0.50;;;;;;;24.35;54.52;94009.72;5114927;28;20498;-49
2022/11/23 09:46:08;;;;;;;0.90;0.40;;;;;;;24.75;53.49;94022.84;5115088;28;20438;-49
2022/11/23 09:49:09;;;;;;;0.87;0.70;;;;;;;24.48;55.54;94029.84;5115022;28;20432;-49
2022/11/23 09:51:39;;;;;;;0.40;0.37;;;;;;;23.15;57.25;94014.81;5114912;27;20418;-49
2022/11/23 09:54:23;;;;;;;0.70;0.40;;;;;;;23.07;56.82;94018.66;5114862;28;20427;-49
2022/11/23 09:56:54;;;;;;;0.50;0.30;;;;;;;22.68;59.16;94021.13;5114682;28;20452;-50
2022/11/23 09:59:40;;;;;;;0.40;0.30;;;;;;;22.74;60.03;94025.81;5114742;28;20837;-50
2022/11/23 10:02:18;;;;;;;0.43;0.37;;;;;;;23.22;56.65;94009.47;5114301;28;20577;-51
2022/11/23 10:04:47;;;;;;;0.40;0.30;;;;;;;23.34;51.55;94030.75;5114712;28;20518;-51
2022/11/23 10:07:33;;;;;;;0.40;0.30;;;;;;;20.39;46.98;94019.38;5114820;28;20511;-51
2022/11/23 10:10:12;;;;;;;0.40;0.30;;;;;;;21.97;53.11;93982.81;5114407;28;20851;-51
2022/11/23 10:12:49;;;;;;;0.40;0.27;;;;;;;22.42;48.43;94037.50;5114061;28;20438;-51
2022/11/23 10:15:24;;;;;;;0.40;0.30;;;;;;;22.20;45.47;93988.00;5114072;28;20931;-51
2022/11/23 10:18:04;;;;;;;0.40;0.30;;;;;;;21.33;41.61;94029.09;5113944;28;20522;-51
2022/11/23 10:20:51;;;;;;;1.63;1.53;;;;;;;21.51;42.59;94032.78;5114283;28;20441;-52
2022/11/23 10:23:38;;;;;;;0.40;0.20;;;;;;;20.66;43.10;93885.53;5113386;28;20469;-52
2022/11/23 10:26:14;;;;;;;0.40;0.30;;;;;;;21.90;42.56;94027.81;5113847;28;20450;-52
2022/11/23 10:28:43;;;;;;;0.40;0.23;;;;;;;22.28;39.84;94026.63;5113550;28;20471;-51
2022/11/23 10:31:16;;;;;;;0.40;0.30;;;;;;;20.90;41.31;93928.13;5113221;28;20871;-52
2022/11/23 10:33:53;;;;;;;0.40;0.30;;;;;;;21.37;40.36;94016.47;5113714;28;20463;-53
2022/11/23 10:36:21;;;;;;;0.30;0.20;;;;;;;20.99;41.05;93898.22;5113288;28;20431;-53
2022/11/23 10:38:54;;;;;;;0.40;0.30;;;;;;;20.44;40.17;94024.44;5113813;28;20427;-52
2022/11/23 10:41:23;;;;;;;0.40;0.20;;;;;;;20.03;42.13;93987.66;5113147;28;20446;-52
2022/11/23 10:43:58;;;;;;;0.40;0.20;;;;;;;21.28;41.39;94005.19;5113005;28;20455;-52
2022/11/23 10:46:30;;;;;;;0.40;0.27;;;;;;;20.72;38.96;93954.09;5113328;28;20442;-52
2022/11/23 10:49:18;;;;;;;0.40;0.30;;;;;;;21.05;37.86;93886.00;5113462;28;20424;-50
2022/11/23 10:51:52;;;;;;;0.40;0.20;;;;;;;21.70;38.22;93953.63;5113353;28;20857;-50
2022/11/23 10:54:24;;;;;;;0.40;0.37;;;;;;;21.62;39.55;93960.09;5113170;28;20461;-52
2022/11/23 10:56:54;;;;;;;0.40;0.20;;;;;;;21.66;39.24;93942.03;5113229;28;20419;-52
2022/11/23 10:59:32;;;;;;;0.40;0.30;;;;;;;22.04;38.88;94000.97;5113145;28;20468;-52
2022/11/23 11:02:15;;;;;;;0.40;0.30;;;;;;;21.81;36.80;93986.84;5113427;28;20869;-52
2022/11/23 11:04:45;;;;;;;0.40;0.20;;;;;;;22.35;40.09;93995.03;5113216;28;20981;-51
2022/11/23 11:07:23;;;;;;;0.40;0.20;;;;;;;22.58;37.15;93992.91;5113188;28;20428;-51
2022/11/23 11:09:54;;;;;;;0.40;0.20;;;;;;;23.47;36.53;93998.75;5113362;28;20434;-50
2022/11/23 11:12:22;;;;;;;0.40;0.20;;;;;;;22.82;38.74;93990.75;5113111;28;20473;-50
2022/11/23 11:15:02;;;;;;;0.40;0.20;;;;;;;21.20;40.77;93990.84;5112994;28;20502;-51
2022/11/23 11:17:40;;;;;;;0.40;0.30;;;;;;;21.51;39.55;93954.59;5112890;28;20484;-50
2022/11/23 11:20:31;;;;;;;0.30;0.20;;;;;;;21.92;39.48;93944.59;5112559;28;20912;-50
2022/11/23 11:23:02;;;;;;;1.23;0.30;;;;;;;21.50;39.08;94005.03;5112823;28;20476;-51
2022/11/23 11:25:34;;;;;;;0.40;0.20;;;;;;;20.47;39.98;94015.66;5112819;28;21014;-48
2022/11/23 11:28:15;;;;;;;0.50;0.50;;;;;;;19.57;41.12;93976.13;5112500;28;20939;-51
2022/11/23 11:30:51;;;;;;;0.40;0.30;;;;;;;17.76;42.63;93847.47;5112862;28;20462;-51
2022/11/23 11:33:29;;;;;;;0.37;0.20;;;;;;;18.42;44.60;93992.19;5112725;28;20465;-55
2022/11/23 11:36:06;;;;;;;0.40;0.30;;;;;;;18.90;45.63;94002.47;5112966;28;20489;-55
2022/11/23 11:38:37;;;;;;;0.40;0.30;;;;;;;19.03;44.38;93992.38;5112616;28;20511;-55
2022/11/23 11:41:09;;;;;;;0.60;0.60;;;;;;;18.91;43.30;93987.13;5112880;28;20428;-55
2022/11/23 11:43:42;;;;;;;0.43;0.43;;;;;;;20.29;42.27;93992.31;5112389;28;20510;-53
2022/11/23 11:46:14;;;;;;;0.50;0.30;;;;;;;21.30;39.91;93971.31;5112848;28;20502;-53
2022/11/23 11:49:05;;;;;;;0.40;0.30;;;;;;;21.70;39.37;93975.22;5112373;28;20427;-52